createdAt,value
2019-01-18T00:15:51.235Z,65.42
2019-01-18T00:30:52.145Z,66.28
2019-01-18T01:15:53.224Z,66.69
2019-01-18T01:30:51.371Z,67.08
2019-01-18T01:45:54.304Z,66.95
2019-01-18T02:00:51.399Z,67.02
2019-01-18T02:15:51.590Z,66.57
2019-01-18T02:30:50.937Z,66.58
2019-01-18T02:45:52.419Z,67.25
2019-01-18T03:00:51.466Z,67.38
2019-01-18T03:15:52.550Z,67.25
2019-01-18T03:30:53.690Z,67.02
2019-01-18T03:45:53.189Z,67.97
2019-01-18T04:00:50.503Z,67.66
2019-01-18T04:15:50.980Z,68.52
2019-01-18T04:30:51.402Z,68.67
2019-01-18T04:45:51.207Z,68.49
2019-01-18T05:00:51.075Z,68.20
2019-01-18T05:15:53.025Z,67.63
2019-01-18T05:30:51.338Z,68.27
2019-01-18T05:45:51.375Z,67.48
2019-01-18T06:00:56.514Z,68.07
2019-01-18T06:15:51.189Z,67.93
2019-01-18T06:30:51.565Z,66.76
2019-01-18T06:45:51.551Z,62.26
2019-01-18T07:00:51.494Z,56.69
2019-01-18T07:15:52.007Z,54.03
2019-01-18T07:30:50.794Z,51.50
2019-01-18T07:45:52.591Z,47.94
2019-01-18T08:00:51.524Z,44.23
2019-01-18T08:15:51.530Z,42.93
2019-01-18T08:30:51.000Z,41.17
2019-01-18T08:45:54.295Z,41.72
2019-01-18T09:00:50.770Z,42.72
2019-01-18T09:15:50.650Z,43.39
2019-01-18T09:30:51.116Z,44.67
2019-01-18T09:45:52.528Z,44.17
2019-01-18T10:00:52.963Z,44.72
2019-01-18T10:15:50.329Z,43.43
2019-01-18T10:30:51.661Z,44.11
2019-01-18T10:45:51.194Z,43.44
2019-01-18T11:00:51.196Z,43.50
2019-01-18T11:15:52.480Z,43.16
2019-01-18T11:30:51.409Z,44.08
2019-01-18T11:45:51.853Z,45.25
2019-01-18T12:00:56.500Z,44.40
2019-01-18T12:15:53.203Z,44.38
2019-01-18T12:30:53.097Z,43.87
2019-01-18T12:45:52.032Z,44.71
2019-01-18T13:00:53.063Z,46.19
2019-01-18T13:30:50.823Z,49.52
2019-01-18T13:45:50.776Z,48.79
2019-01-18T14:00:52.213Z,48.66
2019-01-18T14:15:51.786Z,49.98
2019-01-18T14:30:51.119Z,50.46
2019-01-18T14:45:50.979Z,52.27
2019-01-18T15:00:50.840Z,53.18
2019-01-18T15:15:50.994Z,54.02
2019-01-18T15:45:51.520Z,56.63
2019-01-18T16:00:53.216Z,58.28
2019-01-18T16:15:56.568Z,59.48
2019-01-18T16:30:51.482Z,60.87
2019-01-18T16:45:51.462Z,61.63
2019-01-18T17:00:53.044Z,61.57
2019-01-18T17:15:51.315Z,62.16
2019-01-18T17:30:57.462Z,63.39
